This is the latest recevied weather packets stored in our database for station/object TA2LKM-11. If no packets are shown the sender has not sent any weather packets the latest 10 day(s).
| Time | Temp. | Humidity | Pressure | Rain* | Wind** | Luminosity | Snow |
|---|---|---|---|---|---|---|---|
| 1788241735 | 40.56° C | 30% | 1015.9 hPa | - | - | - | - |
| 1788240835 | 41.11° C | 31% | 1015.8 hPa | - | - | - | - |
| 1788239934 | 38.89° C | 33% | 1015.7 hPa | - | - | - | - |
| 1788239033 | 35.56° C | 37% | 1015.6 hPa | - | - | - | - |
| 1788238132 | 32.22° C | 42% | 1015.3 hPa | - | - | - | - |
| 1788237232 | 30.56° C | 45% | 1015.2 hPa | - | - | - | - |
| 1788237026 | 29.44° C | 47% | 1015.1 hPa | - | - | - | - |
| 1788236126 | 23.89° C | 58% | 1014.9 hPa | - | - | - | - |
| 1788235225 | 22.22° C | 63% | 1014.7 hPa | - | - | - | - |
| 1788234324 | 20° C | 68% | 1014.6 hPa | - | - | - | - |
| 1788233423 | 20° C | 67% | 1014.3 hPa | - | - | - | - |
| 1788232840 | 20.56° C | 68% | 1014.2 hPa | - | - | - | - |
| 1788231940 | 22.22° C | 64% | 1014.2 hPa | - | - | - | - |
| 1788231039 | 21.11° C | 67% | 1014.1 hPa | - | - | - | - |
| 1788230138 | 21.67° C | 66% | 1013.9 hPa | - | - | - | - |
| 1788229237 | 21.67° C | 65% | 1013.9 hPa | - | - | - | - |
| 1788228337 | 21.67° C | 66% | 1013.9 hPa | - | - | - | - |
| 1788227436 | 22.22° C | 65% | 1013.8 hPa | - | - | - | - |
| 1788226535 | 21.67° C | 64% | 1013.9 hPa | - | - | - | - |
| 1788225635 | 22.22° C | 64% | 1013.9 hPa | - | - | - | - |
| 1788224733 | 22.22° C | 63% | 1014 hPa | - | - | - | - |
| 1788224644 | 22.22° C | 64% | 1014 hPa | - | - | - | - |
| 1788223743 | 22.22° C | 63% | 1014.1 hPa | - | - | - | - |
| 1788222843 | 22.22° C | 62% | 1014 hPa | - | - | - | - |
| 1788221942 | 23.33° C | 58% | 1014 hPa | - | - | - | - |
* Rain since midnight (hover to see other rain measurements)
** Current wind speed in m/s (hover to see current wind gust speed)